Impacts TAF Board
For situational awareness. Not to be used for flight planning purposes.
IDs:

KSSF - San Antonio/Stinson, TX, US

Issued at 0532 UTC 19 Aug 2019
Updated at 0556 UTC 19 Aug 2019
Potential Impact None Slight Moderate High
Time0553Z 19/06Z 19/07Z 19/08Z 19/09Z 19/10Z 19/11Z 19/12Z 19/13Z 19/14Z 19/15Z 19/16Z 19/17Z 19/18Z>>
Type OBS PRVL PRVL PRVL PRVL PRVL PRVL PRVL PRVL PRVL PRVL PRVL PRVL PRVL
VIS 10 >6 >6 >6 >6 >6 >6 >6 >6 >6 >6 >6 >6 >6
CIG -- -- -- 15 15 15 15 15 15 15 -- -- -- --
Cover CLR FEW FEW BKN BKN BKN BKN BKN BKN BKN SCT SCT SCT SCT
FltCat VFR VFR VFR MVFR MVFR MVFR MVFR MVFR MVFR MVFR VFR VFR VFR VFR
WX -- -- -- -- -- -- -- -- -- -- -- -- -- --
WDir 140 140 140 150 150 150 150 150 150 150 140 140 140 140
WSpd 9 10 10 7 7 7 7 7 7 7 14 14 14 14
WGst -- -- -- -- -- -- -- -- -- -- -- -- -- --
Raw TAF
KSSF 190532Z 1906/2006 14010KT P6SM FEW250
  FM190800 15007KT P6SM BKN015 BKN025
  FM191500 14014KT P6SM SCT025


Raw METAR
KSSF 190553Z AUTO 14009KT 10SM CLR 28/21 A2992 RMK AO2 SLP117 T02830211 10383 20283 51020
KSSF 190453Z AUTO 14010KT 10SM CLR 29/21 A2992 RMK AO2 SLP117 T02940206 404000267
KSSF 190353Z AUTO 13014KT 10SM CLR 30/21 A2990 RMK AO2 SLP110 T03000206
KSSF 190253Z AUTO 13015G24KT 10SM CLR 32/20 A2986 RMK AO2 SLP097 T03170200 53026

METAR Board
Radar Display
Forecast Discussion
For situational awareness. Not to be used for flight planning purposes.